Flight Track Log - Related Links

Times and Time Zones

All times are in EDT time to prevent confusion due to time zone crossing. See the N201SU flight status page for this flight to view local times or setup timezone preferences in your user account.

Time Position Orientation Groundspeed Altitude Reporting Facility
EDT Latitude Longitude Course Direction KTS MPH feet Rate Location/Type
Fri 10:04:29 AM 39.9833 -75.8333 129° Southeast 196 226 1,700  Level Philadelphia TRACON
Fri 10:05:01 AM 39.9639 -75.8017 129° Southeast 230 265 2,900 2,308 Climbing FAA TRACON SMA TRACON (SMA)
Fri 10:05:21 AM 39.9556 -75.7803 117° Southeast 218 251 3,700 1,950 Climbing FAA TRACON SMA TRACON (SMA)
Fri 10:05:41 AM 39.9486 -75.7542 109° East 234 269 4,200 2,100 Climbing FAA TRACON SMA TRACON (SMA)
Fri 10:06:01 AM 39.9506 -75.7144 86° East 287 330 5,100 2,400 Climbing FAA TRACON SMA TRACON (SMA)
Fri 10:06:21 AM 39.9533 -75.6811 84° East 298 343 5,800 2,250 Climbing FAA TRACON SMA TRACON (SMA)
Fri 10:06:41 AM 39.9553 -75.6481 86° East 305 351 6,600 2,550 Climbing FAA TRACON SMA TRACON (SMA)
Fri 10:07:01 AM 39.9517 -75.6136 98° East 304 350 7,500 2,850 Climbing FAA TRACON SMA TRACON (SMA)
Fri 10:07:21 AM 39.9444 -75.5728 103° East 305 351 8,500 2,700 Climbing FAA TRACON SMA TRACON (SMA)
Fri 10:07:41 AM 39.9367 -75.5392 107° East 317 365 9,300 2,700 Climbing FAA TRACON SMA TRACON (SMA)
Fri 10:08:01 AM 39.9303 -75.5042 103° East 322 371 10,300 3,300 Climbing FAA TRACON SMA TRACON (SMA)
Fri 10:08:21 AM 39.9225 -75.4603 103° East 324 373 11,500 2,488 Climbing FAA TRACON SMA TRACON (SMA)
Fri 10:08:42 AM 39.9158 -75.4236 103° East 330 380 12,000 878 Climbing FAA TRACON SMA TRACON (SMA)
Fri 10:09:02 AM 39.9078 -75.3742 102° East 369 425 12,100  Climbing FAA TRACON SMA TRACON (SMA)
Fri 10:09:22 AM 39.9008 -75.3322 102° East 365 420 12,000  Descending FAA TRACON SMA TRACON (SMA)
Fri 10:09:42 AM 39.8950 -75.2944 101° East 347 399 12,100  Climbing FAA TRACON SMA TRACON (SMA)
Fri 10:10:02 AM 39.8875 -75.2542 104° East 365 420 12,000 -150 Descending FAA TRACON SMA TRACON (SMA)
Fri 10:10:22 AM 39.8797 -75.2042 101° East 366 421 12,000  Level FAA TRACON SMA TRACON (SMA)
Fri 10:10:42 AM 39.8733 -75.1678 103° East 351 404 12,000  Level FAA TRACON SMA TRACON (SMA)
Fri 10:11:02 AM 39.8669 -75.1289 102° East 350 403 12,000  Level FAA TRACON SMA TRACON (SMA)
Fri 10:11:22 AM 39.8583 -75.0822 104° East 335 386 12,000  Level FAA TRACON SMA TRACON (SMA)
Fri 10:11:42 AM 39.8525 -75.0514 104° East 308 354 12,000  Level FAA TRACON SMA TRACON (SMA)
Fri 10:12:02 AM 39.8467 -75.0169 102° East 307 353 12,000  Level FAA TRACON SMA TRACON (SMA)
Fri 10:12:22 AM 39.8383 -74.9725 104° East 319 367 12,000  Level FAA TRACON SMA TRACON (SMA)
Fri 10:12:42 AM 39.8325 -74.9367 102° East 324 373 12,000  Level FAA TRACON SMA TRACON (SMA)
Fri 10:13:02 AM 39.8261 -74.9006 103° East 331 381 12,000 150 Level FAA TRACON SMA TRACON (SMA)
Fri 10:13:22 AM 39.8181 -74.8567 103° East 333 383 12,100 1,200 Climbing FAA TRACON SMA TRACON (SMA)
Fri 10:13:42 AM 39.8119 -74.8181 102° East 333 383 12,800 2,250 Climbing FAA TRACON SMA TRACON (SMA)
Fri 10:14:02 AM 39.8050 -74.7822 104° East 333 383 13,600 2,550 Climbing FAA TRACON SMA TRACON (SMA)
Fri 10:14:22 AM 39.7983 -74.7492 105° East 334 384 14,500 3,150 Climbing FAA TRACON SMA TRACON (SMA)
Fri 10:14:42 AM 39.7942 -74.6967 96° East 361 415 15,700 2,250 Climbing FAA TRACON SMA TRACON (SMA)
Fri 10:15:02 AM 39.7961 -74.6578 86° East 375 432 16,000 450 Climbing FAA TRACON SMA TRACON (SMA)
Fri 10:15:22 AM 39.8003 -74.6053 84° East 392 451 16,000  Level FAA TRACON SMA TRACON (SMA)
Fri 10:15:42 AM 39.8053 -74.5586 82° East 399 459 16,000  Level FAA TRACON SMA TRACON (SMA)
Fri 10:16:22 AM 39.8053 -74.5586 201° Southwest 399 459 16,000 1,328 Level FAA TRACON SMA TRACON (SMA)
Fri 10:17:53 AM 39.8506 -74.2886 78° East 374 430 18,900 1,766 Climbing New York Center
Fri 10:20:13 AM 39.9989 -74.0244 54° Northeast 390 449 22,800 1,242 Climbing Boston Center
Fri 10:21:11 AM 40.0653 -73.9042 54° Northeast 397 457 23,000 102 Climbing Boston Center
Fri 10:22:11 AM 40.1378 -73.7728 54° Northeast 416 479 23,000  Level Boston Center
Fri 10:23:12 AM 40.2100 -73.6411 54° Northeast 429 494 23,000  Level Boston Center
Fri 10:24:11 AM 40.2822 -73.5064 55° Northeast 443 510 23,000  Level Boston Center
Fri 10:25:10 AM 40.3564 -73.3686 55° Northeast 450 518 23,000  Level Boston Center
Fri 10:26:11 AM 40.4283 -73.2333 55° Northeast 455 524 23,000 -100 Level Boston Center
Fri 10:27:10 AM 40.5042 -73.0978 54° Northeast 455 524 22,800 -605 Descending Boston Center
Fri 10:28:10 AM 40.5736 -72.9619 56° Northeast 450 518 21,800 -1,100 Descending Boston Center
Fri 10:29:10 AM 40.6450 -72.8339 54° Northeast 440 506 20,600 -1,339 Descending Boston Center
Fri 10:30:11 AM 40.7119 -72.7056 55° Northeast 440 506 19,100 -1,438 Descending Boston Center
Fri 10:31:11 AM 40.7789 -72.5772 55° Northeast 434 499 17,700 -1,388 Descending Boston Center
Fri 10:32:12 AM 40.8458 -72.4539 54° Northeast 420 483 16,300 -1,462 Descending Boston Center
Fri 10:33:10 AM 40.9019 -72.3467 55° Northeast 386 444 14,800 -1,483 Descending Boston Center
Fri 10:33:41 AM 40.9289 -72.2917 57° Northeast 357 411 14,100 -1,279 Descending Boston Center
Fri 10:34:11 AM 40.9456 -72.2394 67° East 352 405 13,500 -1,385 Descending Boston Center
Fri 10:34:33 AM 40.9622 -72.1956 63° Northeast 337 388 12,900 -1,377 Descending Boston Center
Fri 10:35:12 AM 40.9828 -72.1267 68° East 331 381 12,100 -1,475 Descending Boston Center
Fri 10:35:34 AM 41.0014 -72.0797 62° Northeast 336 387 11,400 -1,345 Descending Boston Center
Fri 10:36:10 AM 41.0219 -72.0164 67° East 325 374 10,800 -1,082 Descending Boston Center
Fri 10:36:35 AM 41.0406 -71.9639 65° Northeast 329 379 10,300 -1,341 Descending Boston Center
Fri 10:37:35 AM 41.1047 -71.8808 44° Northeast 325 374 8,900 -1,476 Descending Boston Center
Fri 10:38:41 AM 41.1753 -71.7919 43° Northeast 316 364 7,200 -1,489 Descending Boston Center
Fri 10:39:48 AM 41.2331 -71.7086 47° Northeast 287 330 5,600 -1,082 Descending Boston Center
Fri 10:40:43 AM 41.2825 -71.6417 45° Northeast 279 321 5,000 -319 Descending Boston Center
Fri 10:41:41 AM 41.3383 -71.5747 42° Northeast 284 327 5,000  Level Boston Center
Fri 10:42:46 AM 41.3961 -71.4936 46° Northeast 281 323 5,000  Level Boston Center
Fri 10:43:52 AM 41.4578 -71.4097 46° Northeast 277 319 5,000 -298 Level Boston Center
Fri 10:44:47 AM 41.5072 -71.3425 46° Northeast 273 314 4,400 -944 Descending Boston Center
Fri 10:45:40 AM 41.5464 -71.2917 44° Northeast 234 269 3,300 -1,178 Descending Boston Center
Fri 10:46:34 AM 41.5833 -71.2439 44° Northeast 203 234 2,300 -678 Descending Boston Center
Fri 10:47:35 AM 41.6183 -71.1961 46° Northeast 177 204 2,000 -138 Descending Boston Center
Fri 10:48:44 AM 41.6572 -71.1397 47° Northeast 184 212 2,000  Level Boston Center
Fri 10:49:42 AM 41.6961 -71.0889 44° Northeast 186 214 2,000  Level Boston Center

Login

Don't have an account? Register now (free) for customized features, flight alerts, and more!